Time;durP1;ratioP1;P1;durP2;ratioP2;P2;SDS_P1;SDS_P2;PMS_P1;PMS_P2;Temp;Humidity;BMP_temperature;BMP_pressure;BME280_temperature;BME280_humidity;BME280_pressure;Samples;Min_cycle;Max_cycle;Signal;HPM_P1;HPM_P2
2024/04/11 00:01:25;;;;;;;;;;;14.50;99.90;;;15.01;68.91;102630.47;5528835;25;19998;-70
2024/04/11 00:03:54;;;;;;;11.85;4.97;;;14.60;99.90;;;15.07;68.95;102634.94;5528186;26;19923;-70
2024/04/11 00:06:24;;;;;;;14.20;5.22;;;14.70;99.90;;;15.12;68.83;102626.06;5527205;26;20039;-70
2024/04/11 00:08:52;;;;;;;12.13;4.95;;;14.70;99.90;;;15.08;69.23;102639.34;5528047;26;20061;-69
2024/04/11 00:11:25;;;;;;;10.90;5.18;;;14.70;99.90;;;15.11;68.89;102626.97;5526848;26;19993;-69
2024/04/11 00:13:53;;;;;;;10.02;4.60;;;14.70;99.90;;;15.10;69.09;102624.28;5526860;26;20025;-69
2024/04/11 00:16:25;;;;;;;12.00;5.20;;;14.70;99.90;;;15.12;69.13;102639.41;5526512;25;20377;-69
2024/04/11 00:18:53;;;;;;;10.75;4.88;;;14.80;99.90;;;15.03;69.09;102627.78;5527176;26;19993;-69
2024/04/11 00:21:23;;;;;;;12.15;5.40;;;14.70;99.90;;;14.93;69.63;102605.53;5526692;26;20061;-69
2024/04/11 00:23:51;;;;;;;;;;;14.70;99.90;;;15.08;69.76;102637.59;5528062;26;19993;-69
2024/04/11 00:26:22;;;;;;;13.57;5.18;;;14.70;99.90;;;15.15;69.87;102638.53;5526869;26;20325;-69
2024/04/11 00:28:53;;;;;;;15.82;5.10;;;14.80;99.90;;;14.83;70.13;102569.06;5526820;26;20005;-69
2024/04/11 00:31:23;;;;;;;12.77;5.25;;;14.70;99.90;;;15.20;70.47;102623.44;5527058;25;20460;-69
2024/04/11 00:34:12;;;;;;;14.23;5.95;;;14.80;99.90;;;15.11;70.36;102624.31;5526805;26;19998;-69
2024/04/11 00:36:44;;;;;;;9.70;5.03;;;14.70;99.90;;;15.15;70.57;102617.22;5526334;26;19993;-69
2024/04/11 00:39:17;;;;;;;16.02;5.65;;;14.80;99.90;;;15.17;70.43;102627.00;5526534;26;19994;-69
2024/04/11 00:41:48;;;;;;;13.63;6.20;;;14.80;99.90;;;15.16;70.63;102627.88;5526547;25;20009;-69
2024/04/11 00:44:19;;;;;;;;;;;14.80;99.90;;;15.11;70.97;102626.97;5527440;25;20009;-69
2024/04/11 00:46:51;;;;;;;14.57;5.82;;;14.80;99.90;;;14.31;70.82;102485.31;5526340;26;19955;-69
2024/04/11 00:49:20;;;;;;;9.57;5.90;;;14.80;99.90;;;15.19;71.21;102614.53;5526199;26;20406;-69
2024/04/11 00:51:51;;;;;;;14.60;6.35;;;14.80;99.90;;;15.27;71.24;102607.47;5526433;26;19993;-69
2024/04/11 00:54:20;;;;;;;9.65;5.70;;;14.90;99.90;;;15.04;71.29;102584.28;5526210;26;20065;-69
2024/04/11 00:56:50;;;;;;;13.05;6.82;;;14.80;99.90;;;15.15;71.12;102617.22;5526018;25;20098;-69
2024/04/11 00:59:20;;;;;;;16.30;6.78;;;14.70;99.90;;;15.14;71.91;102605.63;5526550;26;20305;-69
2024/04/11 01:01:51;;;;;;;13.73;6.43;;;14.80;99.90;;;15.07;71.53;102609.16;5524982;26;20061;-69
2024/04/11 01:04:19;;;;;;;10.70;5.93;;;14.70;99.90;;;15.10;71.90;102618.94;5526297;26;20005;-69
2024/04/11 01:07:10;;;;;;;11.35;5.65;;;14.70;99.90;;;15.11;72.06;102615.41;5524193;26;20006;-69
2024/04/11 01:09:41;;;;;;;12.98;5.70;;;14.70;99.90;;;14.90;72.68;102588.66;5524452;26;20075;-69
2024/04/11 01:12:12;;;;;;;14.05;5.55;;;14.70;99.90;;;15.05;73.23;102602.03;5524132;26;19997;-69
2024/04/11 01:14:44;;;;;;;9.25;5.20;;;14.70;99.90;;;14.73;73.82;102564.56;5525844;26;20041;-69
2024/04/11 01:17:16;;;;;;;14.85;5.35;;;14.60;99.90;;;15.02;73.70;102602.03;5525749;26;20387;-69
2024/04/11 01:19:45;;;;;;;13.30;5.30;;;14.60;99.90;;;14.94;74.19;102595.78;5526223;26;19997;-69
2024/04/11 01:22:15;;;;;;;11.63;5.25;;;14.60;99.90;;;14.66;74.92;102572.50;5525895;26;20518;-69
2024/04/11 01:24:45;;;;;;;12.55;5.05;;;14.40;99.90;;;14.80;75.41;102598.38;5523882;26;19993;-69
2024/04/11 01:27:16;;;;;;;12.60;5.20;;;14.40;99.90;;;14.76;75.49;102590.31;5525875;25;20013;-69
2024/04/11 01:29:44;;;;;;;;;;;14.40;99.90;;;14.81;75.68;102597.47;5526162;26;20004;-70
2024/04/11 01:32:14;;;;;;;8.50;4.70;;;14.40;99.90;;;14.72;76.20;102588.53;5525297;25;19935;-69
2024/04/11 01:34:42;;;;;;;9.48;4.60;;;14.40;99.90;;;14.69;76.74;102593.84;5525135;26;20038;-69
2024/04/11 01:37:12;;;;;;;8.02;4.15;;;14.40;99.90;;;14.74;77.47;102586.75;5525361;26;20033;-69
2024/04/11 01:39:40;;;;;;;10.50;5.18;;;14.30;99.90;;;14.69;77.46;102588.53;5523754;26;20022;-69
2024/04/11 01:42:13;;;;;;;9.00;4.97;;;14.40;99.90;;;14.79;78.17;102590.38;5525092;25;20021;-69
2024/04/11 01:44:41;;;;;;;11.10;4.68;;;14.40;99.90;;;14.67;78.14;102590.28;5525830;25;20008;-69
2024/04/11 01:47:14;;;;;;;12.20;5.15;;;14.40;99.90;;;14.68;78.79;102598.28;5524908;26;20021;-69
2024/04/11 01:49:43;;;;;;;11.45;4.80;;;14.30;99.90;;;14.76;78.78;102599.22;5523449;26;20031;-69
2024/04/11 01:52:13;;;;;;;9.27;4.60;;;14.40;99.90;;;14.79;79.07;102617.88;5525077;26;19993;-69
2024/04/11 01:54:41;;;;;;;;;;;14.40;99.90;;;14.78;78.88;102625.88;5525933;25;19993;-69
2024/04/11 01:57:14;;;;;;;12.15;5.00;;;14.40;99.90;;;14.78;78.86;102621.44;5522953;26;20424;-69
2024/04/11 01:59:41;;;;;;;9.90;4.90;;;14.40;99.90;;;14.81;78.95;102610.78;5523147;26;19993;-69
2024/04/11 02:02:14;;;;;;;11.50;5.25;;;14.40;99.90;;;14.77;78.91;102606.31;5526210;26;20113;-69
2024/04/11 02:04:41;;;;;;;8.27;4.82;;;14.40;99.90;;;14.65;79.26;102606.25;5528792;26;20004;-69
2024/04/11 02:07:12;;;;;;;15.65;5.32;;;14.30;99.90;;;14.66;79.30;102621.34;5528670;26;20310;-69
2024/04/11 02:09:40;;;;;;;10.32;4.82;;;14.30;99.90;;;14.64;79.89;102604.47;5528866;26;19993;-69
2024/04/11 02:12:11;;;;;;;11.45;5.10;;;14.30;99.90;;;14.67;80.27;102607.16;5526771;26;20021;-69
2024/04/11 02:14:42;;;;;;;13.77;5.38;;;14.30;99.90;;;14.58;81.61;102598.19;5528590;26;20299;-69
2024/04/11 02:17:12;;;;;;;16.35;5.10;;;14.20;99.90;;;14.62;81.97;102613.31;5527376;26;19994;-68
2024/04/11 02:19:40;;;;;;;15.02;4.90;;;14.20;99.90;;;14.61;82.08;102616.88;5528785;25;20136;-69
2024/04/11 02:22:10;;;;;;;13.05;4.57;;;14.20;99.90;;;14.59;81.72;102618.63;5528697;26;19994;-69
2024/04/11 02:24:37;;;;;;;10.85;5.30;;;14.20;99.90;;;14.31;82.54;102559.84;5528622;26;19998;-69
2024/04/11 02:27:08;;;;;;;13.93;5.20;;;14.20;99.90;;;14.66;83.63;102610.69;5528662;26;19997;-69
2024/04/11 02:29:36;;;;;;;13.55;5.60;;;14.30;99.90;;;14.63;84.07;102613.34;5528757;25;20008;-69
2024/04/11 02:32:09;;;;;;;11.52;5.00;;;14.30;99.90;;;14.03;85.36;102517.03;5528506;25;19993;-69
2024/04/11 02:34:37;;;;;;;14.13;5.65;;;14.20;99.90;;;13.99;86.63;102502.81;5528977;26;20063;-69
2024/04/11 02:37:08;;;;;;;10.80;5.38;;;14.20;99.90;;;14.61;86.97;102593.81;5528350;26;20004;-69
2024/04/11 02:39:35;;;;;;;12.57;5.05;;;14.20;99.90;;;14.54;87.15;102604.41;5528371;25;19993;-69
2024/04/11 02:42:07;;;;;;;13.13;5.10;;;14.20;99.90;;;14.57;87.24;102585.78;5526604;26;20001;-69
2024/04/11 02:44:35;;;;;;;11.38;4.88;;;14.20;99.90;;;14.35;87.51;102560.75;5528803;25;20025;-69
2024/04/11 02:47:05;;;;;;;12.38;5.43;;;14.10;99.90;;;14.41;88.04;102576.78;5527933;26;20034;-69
2024/04/11 02:49:36;;;;;;;10.52;5.00;;;14.10;99.90;;;14.45;88.65;102605.22;5528251;25;20065;-69
2024/04/11 02:52:07;;;;;;;15.05;5.10;;;14.00;99.90;;;14.52;88.92;102585.72;5528713;26;20025;-69
2024/04/11 02:54:35;;;;;;;12.43;5.20;;;14.10;99.90;;;14.60;88.89;102583.13;5528421;26;20009;-69
2024/04/11 02:57:05;;;;;;;9.57;5.03;;;14.20;99.90;;;14.43;88.98;102554.63;5527994;26;20505;-69
2024/04/11 02:59:33;;;;;;;11.35;5.32;;;14.20;99.90;;;14.41;89.14;102545.72;5526268;26;20493;-70
2024/04/11 03:02:03;;;;;;;12.02;5.40;;;14.20;99.90;;;14.58;89.50;102568.91;5525755;26;20002;-69
2024/04/11 03:04:31;;;;;;;11.05;5.00;;;14.20;99.90;;;14.54;89.94;102569.78;5527954;26;20450;-69
2024/04/11 03:07:03;;;;;;;11.07;5.75;;;14.20;99.90;;;14.45;90.88;102566.16;5527872;26;20023;-70
2024/04/11 03:09:31;;;;;;;13.68;6.03;;;14.10;99.90;;;14.37;90.91;102556.34;5528174;25;20426;-69
2024/04/11 03:12:01;;;;;;;13.07;5.93;;;14.10;99.90;;;14.39;91.30;102578.53;5528033;26;20009;-69
2024/04/11 03:14:29;;;;;;;15.60;6.18;;;14.10;99.90;;;14.30;92.52;102551.84;5525766;26;20318;-69
2024/04/11 03:16:59;;;;;;;16.38;5.47;;;14.00;99.90;;;14.38;92.70;102550.16;5527721;26;20029;-69
2024/04/11 03:19:27;;;;;;;13.65;5.55;;;14.00;99.90;;;14.37;92.85;102551.91;5526318;26;20007;-69
2024/04/11 03:21:57;;;;;;;12.55;5.60;;;14.00;99.90;;;14.41;93.42;102553.72;5526490;26;20001;-69
2024/04/11 03:24:27;;;;;;;10.27;6.05;;;14.00;99.90;;;14.42;94.03;102546.59;5528610;25;19997;-69
2024/04/11 03:26:57;;;;;;;12.85;5.97;;;14.00;99.90;;;14.26;94.07;102512.75;5528632;26;20025;-69
2024/04/11 03:29:25;;;;;;;13.70;5.82;;;14.10;99.90;;;14.36;94.50;102546.59;5529436;25;20065;-69
2024/04/11 03:31:55;;;;;;;13.32;5.65;;;14.00;99.90;;;14.40;94.51;102540.41;5527613;26;19993;-69
2024/04/11 03:34:22;;;;;;;14.13;5.82;;;14.00;99.90;;;14.35;94.54;102527.03;5527390;25;19994;-69
2024/04/11 03:36:54;;;;;;;16.33;5.93;;;14.00;99.90;;;14.35;94.64;102539.47;5527510;26;20003;-69
2024/04/11 03:39:21;;;;;;;13.38;5.68;;;14.00;99.90;;;14.31;94.67;102545.63;5527522;25;20034;-69
2024/04/11 03:41:55;;;;;;;13.13;5.70;;;13.90;99.90;;;14.37;94.51;102538.59;5527644;26;19998;-69
2024/04/11 03:44:26;;;;;;;15.48;5.65;;;14.00;99.90;;;14.38;94.59;102534.19;5527508;26;19997;-69
2024/04/11 03:46:58;;;;;;;12.45;5.82;;;14.10;99.90;;;14.25;95.03;102534.91;5528214;26;20430;-69
2024/04/11 03:49:29;;;;;;;11.82;6.32;;;13.90;99.90;;;14.21;96.03;102534.00;5527687;25;19993;-69
2024/04/11 03:51:57;;;;;;;14.57;6.07;;;13.90;99.90;;;14.24;97.00;102546.44;5527044;26;20025;-68
2024/04/11 03:54:27;;;;;;;11.38;6.25;;;13.90;99.90;;;14.29;97.30;102547.41;5527514;26;19994;-68
2024/04/11 03:56:58;;;;;;;14.80;6.47;;;13.90;99.90;;;14.32;97.13;102550.09;5526141;26;20005;-68
2024/04/11 03:59:28;;;;;;;14.95;7.07;;;13.90;99.90;;;14.02;97.63;102526.75;5527281;25;20001;-68
2024/04/11 04:01:56;;;;;;;17.80;7.97;;;13.90;99.90;;;14.17;98.25;102572.13;5527354;26;20001;-69
2024/04/11 04:04:26;;;;;;;14.93;7.13;;;13.80;99.90;;;14.21;98.59;102557.06;5526907;25;20495;-68
2024/04/11 04:06:54;;;;;;;11.27;6.93;;;13.90;99.90;;;14.29;98.93;102550.06;5527490;25;20016;-69
2024/04/11 04:09:25;;;;;;;13.48;7.05;;;13.90;99.90;;;14.29;98.99;102544.75;5526755;26;19993;-69
2024/04/11 04:11:53;;;;;;;11.02;6.32;;;13.90;99.90;;;14.26;98.93;102536.72;5525319;26;20002;-68
2024/04/11 04:14:26;;;;;;;14.23;7.32;;;13.90;99.90;;;14.24;98.75;102559.75;5526728;26;20033;-68
2024/04/11 04:16:54;;;;;;;12.32;7.13;;;13.90;99.90;;;14.21;99.12;102536.66;5527543;26;20004;-69
2024/04/11 04:19:25;;;;;;;14.60;8.05;;;13.90;99.90;;;14.21;99.37;102557.06;5527666;25;20006;-68
2024/04/11 04:21:52;;;;;;;12.40;7.13;;;13.90;99.90;;;14.30;99.65;102563.38;5526799;26;20065;-69
2024/04/11 04:24:22;;;;;;;16.65;7.63;;;13.90;99.90;;;14.40;99.54;102572.34;5523996;26;20004;-68
2024/04/11 04:26:50;;;;;;;14.98;8.35;;;14.00;99.90;;;14.53;99.19;102568.88;5525786;26;20001;-68
2024/04/11 04:29:21;;;;;;;13.63;7.47;;;14.10;99.90;;;14.46;99.24;102581.25;5524541;26;20334;-68
2024/04/11 04:31:52;;;;;;;13.68;7.40;;;14.10;99.90;;;14.44;99.38;102598.09;5525221;26;20005;-69
2024/04/11 04:34:22;;;;;;;19.13;7.30;;;14.10;99.90;;;14.07;99.30;102506.38;5527256;26;19993;-69
2024/04/11 04:36:50;;;;;;;;;;;14.10;99.90;;;14.61;99.00;102596.47;5527381;26;20442;-70
2024/04/11 04:39:30;;;;;;;11.90;7.30;;;14.20;99.90;;;14.50;99.10;102592.81;5555959;25;19923;-69
2024/04/11 04:42:02;;;;;;;11.63;7.25;;;14.20;99.90;;;14.51;99.62;102605.25;5527039;25;20038;-69
2024/04/11 04:44:29;;;;;;;11.27;7.07;;;14.10;99.90;;;14.48;99.91;102599.03;5526255;26;20408;-69
2024/04/11 04:47:03;;;;;;;11.95;7.60;;;14.10;99.90;;;14.28;100.00;102581.13;5524574;26;20061;-69
2024/04/11 04:49:31;;;;;;;12.10;6.68;;;14.10;99.90;;;14.41;100.00;102603.41;5526589;26;20117;-68
2024/04/11 04:52:01;;;;;;;14.65;7.53;;;14.00;99.90;;;14.42;100.00;102622.06;5526292;26;19993;-69
2024/04/11 04:54:29;;;;;;;23.88;7.80;;;14.10;99.90;;;14.34;100.00;102598.94;5526103;26;20047;-68
2024/04/11 04:56:59;;;;;;;10.95;7.65;;;14.00;99.90;;;14.33;100.00;102610.44;5526562;26;20069;-69
2024/04/11 04:59:26;;;;;;;14.02;7.63;;;13.90;99.90;;;13.94;100.00;102536.44;5526417;26;20004;-69
2024/04/11 05:01:57;;;;;;;9.55;7.63;;;14.00;99.90;;;14.34;100.00;102604.25;5554971;25;20335;-69
2024/04/11 05:04:29;;;;;;;14.40;7.75;;;14.00;99.90;;;14.45;100.00;102615.88;5526527;26;20374;-69
2024/04/11 05:07:00;;;;;;;15.40;7.80;;;14.10;99.90;;;14.42;100.00;102611.41;5555982;25;20001;-69
2024/04/11 05:09:28;;;;;;;11.95;8.18;;;14.10;99.90;;;14.36;100.00;102616.66;5526537;26;20317;-69
2024/04/11 05:11:59;;;;;;;18.05;8.63;;;14.00;99.90;;;14.41;100.00;102627.38;5525768;26;20477;-69
2024/04/11 05:14:27;;;;;;;12.95;8.70;;;14.00;99.90;;;14.43;100.00;102625.63;5525893;26;20120;-69
2024/04/11 05:16:58;;;;;;;12.48;8.63;;;14.10;99.90;;;14.46;100.00;102638.94;5525605;26;19993;-69
2024/04/11 05:19:29;;;;;;;12.52;8.40;;;14.10;99.90;;;14.48;100.00;102642.50;5525559;26;20027;-68
2024/04/11 05:21:59;;;;;;;9.82;8.73;;;14.10;99.90;;;14.41;100.00;102627.38;5525724;25;19994;-69
2024/04/11 05:24:26;;;;;;;18.23;9.60;;;14.10;99.90;;;14.51;100.00;102631.91;5525821;26;20475;-69
2024/04/11 05:26:56;;;;;;;11.15;8.95;;;14.10;99.90;;;14.53;100.00;102639.88;5525571;26;19997;-69
2024/04/11 05:29:25;;;;;;;13.15;9.23;;;14.20;99.90;;;14.59;100.00;102626.63;5525717;26;20001;-68
2024/04/11 05:31:56;;;;;;;17.08;9.30;;;14.20;99.90;;;14.57;100.00;102652.34;5525697;26;20003;-69
2024/04/11 05:34:25;;;;;;;12.27;9.27;;;14.20;99.90;;;14.55;100.00;102639.03;5525464;26;20063;-69
2024/04/11 05:36:59;;;;;;;12.02;9.02;;;14.10;99.90;;;14.59;100.00;102640.84;5527934;26;20062;-69
2024/04/11 05:39:26;;;;;;;14.05;9.30;;;14.20;99.90;;;14.60;100.00;102650.59;5527209;26;19997;-69
2024/04/11 05:41:57;;;;;;;13.43;9.48;;;14.20;99.90;;;14.67;100.00;102647.13;5529357;26;19993;-69
2024/04/11 05:44:25;;;;;;;11.80;9.50;;;14.30;99.90;;;14.64;100.00;102640.84;5529134;26;20017;-69
2024/04/11 05:46:55;;;;;;;13.80;9.70;;;14.20;99.90;;;14.65;100.00;102634.66;5528883;26;20066;-69
2024/04/11 05:49:23;;;;;;;11.00;9.55;;;14.30;99.90;;;14.47;100.00;102614.09;5529825;26;19993;-69
2024/04/11 05:51:53;;;;;;;10.60;9.50;;;14.30;99.90;;;14.62;100.00;102643.50;5529248;26;20070;-69
2024/04/11 05:54:24;;;;;;;11.52;9.63;;;14.20;99.90;;;14.65;100.00;102642.66;5529221;26;20323;-68
2024/04/11 05:56:56;;;;;;;;;;;14.20;99.90;;;14.66;100.00;102644.41;5529294;25;20009;-68
2024/04/11 05:59:23;;;;;;;14.68;9.98;;;14.30;99.90;;;14.59;100.00;102646.16;5529471;26;19993;-68
2024/04/11 06:01:54;;;;;;;11.90;9.48;;;14.20;99.90;;;14.53;100.00;102635.47;5528370;26;20144;-69
2024/04/11 06:04:25;;;;;;;10.40;9.23;;;14.10;99.90;;;14.59;100.00;102630.19;5527086;26;20004;-69
2024/04/11 06:06:57;;;;;;;10.18;9.18;;;14.20;99.90;;;14.57;100.00;102631.94;5526611;26;20002;-69
2024/04/11 06:09:31;;;;;;;11.10;9.13;;;14.10;99.90;;;14.56;100.00;102631.91;5529141;26;20010;-69
2024/04/11 06:11:58;;;;;;;11.27;9.13;;;14.20;99.90;;;14.57;100.00;102637.28;5528674;26;20008;-69
2024/04/11 06:14:28;;;;;;;11.88;9.05;;;14.20;99.90;;;14.53;100.00;102640.78;5526631;26;19994;-69
2024/04/11 06:16:56;;;;;;;10.25;8.85;;;14.20;99.90;;;14.46;100.00;102626.53;5528638;26;19994;-69
2024/04/11 06:19:26;;;;;;;12.32;9.20;;;14.10;99.90;;;14.61;100.00;102649.72;5528606;26;19997;-69
2024/04/11 06:21:53;;;;;;;12.63;9.13;;;14.20;99.90;;;14.00;100.00;102551.56;5526627;26;20001;-69
2024/04/11 06:24:24;;;;;;;13.27;8.70;;;14.20;99.90;;;13.73;100.00;102514.06;5528502;26;20008;-69
2024/04/11 06:26:55;;;;;;;10.10;8.57;;;14.20;99.90;;;14.63;100.00;102674.63;5528535;25;20009;-69
2024/04/11 06:29:25;;;;;;;13.18;8.65;;;14.20;99.90;;;14.66;100.00;102673.72;5529065;26;20003;-69
2024/04/11 06:31:54;;;;;;;12.25;10.05;;;14.20;99.90;;;14.62;100.00;102664.81;5528538;25;19994;-69
2024/04/11 06:34:24;;;;;;;12.82;9.57;;;14.20;99.90;;;14.52;100.00;102684.25;5528439;26;19997;-69
2024/04/11 06:36:54;;;;;;;13.13;9.80;;;14.20;99.90;;;14.57;100.00;102671.91;5529365;26;20430;-69
2024/04/11 06:39:24;;;;;;;12.10;10.80;;;14.20;99.90;;;14.28;100.00;102638.81;5528447;26;20426;-69
2024/04/11 06:41:55;;;;;;;;;;;14.20;99.90;;;14.71;100.00;102680.88;5528889;26;19997;-69
2024/04/11 06:44:26;;;;;;;;;;;14.30;99.90;;;14.65;100.00;102688.84;5528805;26;19951;-69
2024/04/11 06:46:53;;;;;;;14.85;11.07;;;14.30;99.90;;;13.83;100.00;102559.41;5527996;26;20389;-68
2024/04/11 06:49:24;;;;;;;15.43;10.80;;;14.20;99.90;;;14.66;100.00;102682.63;5527491;26;19998;-68
2024/04/11 06:51:51;;;;;;;14.10;11.13;;;14.20;99.90;;;14.55;100.00;102686.06;5526810;26;20357;-70
2024/04/11 06:54:25;;;;;;;16.02;12.55;;;14.20;99.90;;;14.58;100.00;102700.31;5525927;26;19993;-69
2024/04/11 06:56:57;;;;;;;17.30;12.07;;;14.20;99.90;;;14.56;100.00;102704.72;5528122;26;20518;-71
2024/04/11 06:59:28;;;;;;;17.08;13.13;;;14.20;99.90;;;14.48;100.00;102702.00;5527936;26;20021;-70
2024/04/11 07:01:58;;;;;;;18.42;13.38;;;14.20;99.90;;;14.46;100.00;102695.75;5528145;26;20004;-70
2024/04/11 07:04:29;;;;;;;16.13;12.88;;;14.20;99.90;;;14.70;100.00;102713.72;5527766;25;20066;-70
2024/04/11 07:06:58;;;;;;;21.13;15.55;;;14.30;99.90;;;14.64;100.00;102723.44;5526464;26;19990;-70
2024/04/11 07:09:37;;;;;;;23.52;15.43;;;14.20;99.90;;;14.65;100.00;102725.22;5527625;25;19993;-69
2024/04/11 07:12:11;;;;;;;18.02;14.88;;;14.20;99.90;;;14.62;100.00;102709.19;5527821;26;20383;-71
2024/04/11 07:14:40;;;;;;;19.25;15.48;;;14.20;99.90;;;14.56;100.00;102714.47;5526306;26;19993;-70
2024/04/11 07:17:11;;;;;;;20.63;15.95;;;14.10;99.90;;;14.53;100.00;102719.78;5527491;26;20313;-71
2024/04/11 07:19:42;;;;;;;18.48;14.90;;;14.10;99.90;;;14.56;100.00;102726.03;5525486;26;20386;-70
2024/04/11 07:22:18;;;;;;;19.33;15.32;;;14.20;99.90;;;14.42;100.00;102707.25;5527682;26;19997;-69
2024/04/11 07:24:45;;;;;;;21.13;16.27;;;14.20;99.90;;;14.48;100.00;102699.31;5527715;25;20040;-71
2024/04/11 07:27:21;;;;;;;22.63;15.98;;;14.20;99.90;;;14.67;100.00;102732.38;5527680;25;20441;-72
2024/04/11 07:29:49;;;;;;;23.02;17.33;;;14.30;99.90;;;14.63;100.00;102732.31;5527703;25;20009;-70
2024/04/11 07:32:21;;;;;;;24.25;17.65;;;14.20;99.90;;;14.71;100.00;102738.59;5527558;26;19997;-72
2024/04/11 07:34:49;;;;;;;20.90;16.83;;;14.30;99.90;;;14.69;100.00;102735.91;5528047;26;20347;-71
2024/04/11 07:37:25;;;;;;;23.33;17.35;;;14.30;99.90;;;14.58;100.00;102737.59;5527432;26;19993;-70
2024/04/11 07:39:53;;;;;;;20.85;15.88;;;14.30;99.90;;;14.63;100.00;102757.19;5527421;25;19997;-70
2024/04/11 07:42:48;;;;;;;22.30;17.13;;;14.20;99.90;;;14.61;100.00;102756.28;5527007;26;20442;-70
2024/04/11 07:45:17;;;;;;;21.25;16.92;;;14.20;99.90;;;14.76;100.00;102764.41;5527398;25;20326;-68
2024/04/11 07:47:49;;;;;;;22.20;16.27;;;14.30;99.90;;;14.74;100.00;102766.16;5525538;26;20065;-67
2024/04/11 07:50:26;;;;;;;21.45;16.10;;;14.30;99.90;;;14.74;100.00;102758.16;5527867;26;20069;-68
2024/04/11 07:52:57;;;;;;;24.60;16.60;;;14.40;99.90;;;14.78;100.00;102783.06;5525201;26;20022;-67
2024/04/11 07:55:25;;;;;;;23.75;16.08;;;14.40;99.90;;;14.73;100.00;102771.47;5526872;26;19993;-68
2024/04/11 07:57:58;;;;;;;21.15;15.05;;;14.40;99.90;;;14.68;100.00;102774.09;5526728;26;20005;-69
2024/04/11 08:00:27;;;;;;;20.33;14.70;;;14.30;99.90;;;14.67;100.00;102777.66;5525452;25;20344;-68
2024/04/11 08:03:00;;;;;;;23.60;15.07;;;14.30;99.90;;;14.50;100.00;102733.94;5527092;26;19993;-68
2024/04/11 08:05:28;;;;;;;22.83;15.10;;;14.40;99.90;;;14.88;100.00;102793.81;5525694;26;19993;-68
2024/04/11 08:07:59;;;;;;;24.58;14.93;;;14.40;99.90;;;14.81;100.00;102791.06;5525166;26;20008;-68
2024/04/11 08:10:28;;;;;;;19.13;14.23;;;14.50;99.90;;;14.92;100.00;102779.66;5527286;26;20009;-68
2024/04/11 08:13:01;;;;;;;20.58;13.68;;;14.50;99.90;;;14.91;100.00;102793.84;5526897;26;19993;-68
2024/04/11 08:15:28;;;;;;;20.75;13.13;;;14.50;99.90;;;14.84;100.00;102786.69;5526902;26;20069;-69
2024/04/11 08:17:59;;;;;;;23.30;13.80;;;14.50;99.90;;;14.85;100.00;102796.44;5527189;26;19993;-68
2024/04/11 08:20:26;;;;;;;;;;;14.50;99.90;;;14.86;100.00;102798.25;5527340;26;20005;-69
2024/04/11 08:22:58;;;;;;;19.45;13.00;;;14.50;99.90;;;14.91;100.00;102806.25;5526561;26;19990;-67
2024/04/11 08:25:32;;;;;;;17.45;12.85;;;14.50;99.90;;;14.96;100.00;102812.53;5526635;26;20026;-67
2024/04/11 08:28:04;;;;;;;18.73;12.73;;;14.50;99.90;;;14.89;100.00;102808.91;5526426;26;20446;-68
2024/04/11 08:30:35;;;;;;;20.83;12.25;;;14.50;99.90;;;14.99;100.00;102815.22;5526088;25;20021;-67
2024/04/11 08:33:09;;;;;;;21.80;13.05;;;14.60;99.90;;;14.90;100.00;102810.72;5526270;26;20008;-66
2024/04/11 08:35:37;;;;;;;22.50;12.02;;;14.50;99.90;;;14.93;100.00;102826.72;5526751;25;20019;-66
2024/04/11 08:38:11;;;;;;;23.20;11.63;;;14.50;99.90;;;14.83;100.00;102810.63;5526285;26;19993;-67
2024/04/11 08:40:44;;;;;;;18.90;11.68;;;14.50;99.90;;;14.61;100.00;102800.66;5526412;26;20001;-66
2024/04/11 08:43:20;;;;;;;21.02;11.20;;;14.40;99.90;;;14.80;100.00;102822.16;5526303;26;19994;-67
2024/04/11 08:45:47;;;;;;;16.52;9.88;;;14.40;99.90;;;14.80;100.00;102826.59;5526739;26;20002;-67
2024/04/11 08:48:17;;;;;;;17.77;9.88;;;14.40;99.90;;;14.77;100.00;102824.78;5526595;26;20048;-67
2024/04/11 08:50:46;;;;;;;20.08;11.18;;;14.40;99.90;;;14.74;100.00;102834.53;5526287;25;20068;-68
2024/04/11 08:53:20;;;;;;;16.52;10.60;;;14.30;99.90;;;14.68;100.00;102803.41;5526183;26;20005;-67
2024/04/11 08:55:49;;;;;;;20.80;11.02;;;14.40;99.90;;;14.84;100.00;102831.97;5526339;26;20002;-69
2024/04/11 08:58:23;;;;;;;18.48;10.50;;;14.40;99.90;;;14.89;100.00;102837.34;5526526;26;19994;-68
2024/04/11 09:00:55;;;;;;;20.60;11.23;;;14.50;99.90;;;14.81;100.00;102834.59;5526415;26;19994;-69
2024/04/11 09:03:26;;;;;;;23.00;11.45;;;14.40;99.90;;;14.74;100.00;102835.44;5525885;26;20422;-69
2024/04/11 09:05:57;;;;;;;23.20;11.88;;;14.40;99.90;;;14.79;100.00;102830.16;5526582;26;20310;-69
2024/04/11 09:08:28;;;;;;;24.83;11.82;;;14.40;99.90;;;14.83;100.00;102831.94;5526480;26;19994;-68
2024/04/11 09:10:56;;;;;;;24.30;11.80;;;14.40;99.90;;;14.81;100.00;102831.03;5527387;26;19993;-68
2024/04/11 09:13:30;;;;;;;24.10;10.63;;;14.40;99.90;;;14.87;100.00;102847.97;5529541;26;20022;-69
2024/04/11 09:15:59;;;;;;;24.85;12.48;;;14.40;99.90;;;14.86;100.00;102845.31;5528329;25;20002;-69
2024/04/11 09:18:29;;;;;;;22.80;11.45;;;14.40;99.90;;;14.89;100.00;102859.56;5529363;26;20000;-69
2024/04/11 09:21:04;;;;;;;;;;;14.50;99.90;;;14.89;100.00;102859.56;5530127;26;20016;-69
2024/04/11 09:23:39;;;;;;;20.83;10.60;;;14.50;99.90;;;14.83;100.00;102851.50;5527686;26;20343;-69
2024/04/11 09:26:06;;;;;;;22.73;11.05;;;14.50;99.90;;;14.09;100.00;102741.47;5529634;26;20309;-69
2024/04/11 09:28:39;;;;;;;24.73;10.88;;;14.40;99.90;;;14.67;100.00;102852.25;5527903;26;19994;-69
2024/04/11 09:31:09;;;;;;;27.58;10.45;;;14.40;99.90;;;14.89;100.00;102878.22;5530259;26;20004;-69
2024/04/11 09:33:42;;;;;;;19.27;9.43;;;14.50;99.90;;;14.88;100.00;102884.44;5529414;26;20068;-68
2024/04/11 09:36:12;;;;;;;24.33;10.60;;;14.50;99.90;;;14.87;100.00;102887.97;5529905;25;20447;-68
2024/04/11 09:38:45;;;;;;;21.27;10.20;;;14.50;99.90;;;14.94;100.00;102888.94;5529233;26;20005;-69
2024/04/11 09:41:13;;;;;;;19.02;10.00;;;14.60;99.90;;;14.91;100.00;102895.09;5529824;26;20004;-69
2024/04/11 09:43:46;;;;;;;17.90;9.90;;;14.50;99.90;;;15.04;100.00;102894.34;5529009;26;20064;-69
2024/04/11 09:46:17;;;;;;;16.17;8.73;;;14.60;99.90;;;15.11;100.00;102896.22;5529516;25;20062;-68
2024/04/11 09:48:51;;;;;;;17.63;9.80;;;14.70;99.90;;;15.15;100.00;102911.34;5529114;26;20327;-68
2024/04/11 09:51:20;;;;;;;19.80;8.70;;;14.70;99.90;;;14.72;100.00;102844.28;5529570;25;20005;-70
2024/04/11 09:53:52;;;;;;;14.93;8.23;;;14.70;99.90;;;15.11;100.00;102905.97;5528740;26;20009;-69
2024/04/11 09:56:23;;;;;;;18.25;8.98;;;14.70;99.90;;;15.24;100.00;102918.53;5529384;26;20009;-69
2024/04/11 09:58:57;;;;;;;13.98;8.45;;;14.80;99.90;;;15.31;100.00;102901.72;5529254;26;20090;-68
2024/04/11 10:01:32;;;;;;;15.02;8.38;;;14.90;99.90;;;14.49;100.00;102774.78;5527243;26;20075;-69
2024/04/11 10:04:04;;;;;;;18.70;9.23;;;14.80;99.90;;;15.28;100.00;102917.69;5526689;26;20004;-68
2024/04/11 10:06:35;;;;;;;16.52;9.95;;;14.90;99.90;;;15.26;100.00;102914.09;5529546;26;19993;-69
2024/04/11 10:09:17;;;;;;;19.75;9.20;;;14.80;99.90;;;15.21;100.00;102916.72;5529169;26;20017;-68
2024/04/11 10:11:51;;;;;;;19.30;9.23;;;14.80;99.90;;;15.25;100.00;102937.19;5528870;25;20005;-69
2024/04/11 10:14:31;;;;;;;19.30;10.35;;;14.90;99.90;;;15.19;100.00;102918.47;5529062;26;20030;-69
2024/04/11 10:17:04;;;;;;;20.00;9.70;;;14.90;99.90;;;15.35;100.00;102928.41;5528799;26;19997;-69